Time;durP1;ratioP1;P1;durP2;ratioP2;P2;SDS_P1;SDS_P2;PMS_P1;PMS_P2;Temp;Humidity;BMP_temperature;BMP_pressure;BME280_temperature;BME280_humidity;BME280_pressure;Samples;Min_cycle;Max_cycle;Signal;HPM_P1;HPM_P2
2021/10/08 00:00:06;;;;;;;117.75;7.15;;;12.30;80.50;;;;;;5081064;28;20086;-76
2021/10/08 00:02:39;;;;;;;108.82;6.07;;;12.30;80.50;;;;;;5082464;28;20024;-76
2021/10/08 00:05:07;;;;;;;129.88;5.93;;;12.20;80.50;;;;;;5077809;28;20048;-75
2021/10/08 00:07:33;;;;;;;208.95;7.57;;;12.20;80.60;;;;;;5077258;28;20024;-76
2021/10/08 00:10:00;;;;;;;147.05;6.50;;;12.20;80.70;;;;;;5085642;28;20029;-76
2021/10/08 00:12:27;;;;;;;125.90;6.60;;;12.20;80.70;;;;;;5080669;28;20028;-75
2021/10/08 00:14:52;;;;;;;62.38;4.80;;;12.20;80.70;;;;;;5079951;28;20029;-75
2021/10/08 00:17:18;;;;;;;117.32;5.35;;;12.20;80.70;;;;;;5090052;28;20055;-75
2021/10/08 00:19:44;;;;;;;200.68;7.53;;;12.20;80.80;;;;;;5084523;28;20017;-76
2021/10/08 00:22:09;;;;;;;190.07;5.47;;;12.10;80.80;;;;;;5073436;28;20040;-75
2021/10/08 00:24:36;;;;;;;69.43;6.32;;;12.20;80.70;;;;;;5084272;28;20032;-75
2021/10/08 00:27:02;;;;;;;78.07;6.35;;;12.10;80.60;;;;;;5073440;28;20037;-75
2021/10/08 00:29:27;;;;;;;194.90;8.75;;;12.10;80.60;;;;;;5089347;28;20043;-75
2021/10/08 00:31:53;;;;;;;92.38;4.63;;;12.10;80.60;;;;;;5084611;28;20119;-75
2021/10/08 00:34:19;;;;;;;44.28;4.65;;;12.10;80.60;;;;;;5085652;28;20070;-75
2021/10/08 00:36:45;;;;;;;91.80;5.13;;;12.10;80.70;;;;;;5074172;28;20028;-76
2021/10/08 00:39:10;;;;;;;124.55;5.80;;;12.10;80.70;;;;;;5074462;28;20025;-75
2021/10/08 00:41:36;;;;;;;181.05;8.43;;;12.00;80.70;;;;;;5079050;28;20052;-75
2021/10/08 00:44:02;;;;;;;154.23;5.80;;;12.00;80.70;;;;;;5091083;28;20085;-76
2021/10/08 00:46:28;;;;;;;89.07;4.50;;;12.00;80.80;;;;;;5086224;28;20032;-76
2021/10/08 00:48:54;;;;;;;139.43;4.85;;;12.00;80.80;;;;;;5072691;28;20033;-76
2021/10/08 00:51:21;;;;;;;36.15;3.17;;;12.00;80.70;;;;;;5086560;28;20053;-75
2021/10/08 00:53:47;;;;;;;133.88;5.53;;;12.00;80.80;;;;;;5073871;28;20063;-76
2021/10/08 00:56:17;;;;;;;248.45;7.82;;;11.90;80.80;;;;;;5071314;28;20035;-75
2021/10/08 00:58:43;;;;;;;121.50;5.35;;;11.90;80.90;;;;;;5086269;28;20025;-76
2021/10/08 01:01:09;;;;;;;115.70;5.10;;;11.90;81.00;;;;;;5083650;28;20035;-76
2021/10/08 01:03:36;;;;;;;11.57;2.75;;;11.90;81.00;;;;;;5088635;28;20029;-76
2021/10/08 01:06:02;;;;;;;134.93;4.93;;;11.90;80.80;;;;;;5074648;28;20049;-76
2021/10/08 01:08:28;;;;;;;76.30;4.15;;;11.80;80.80;;;;;;5073385;28;20025;-76
2021/10/08 01:10:56;;;;;;;114.93;4.32;;;11.80;80.90;;;;;;5073501;28;20115;-75
2021/10/08 01:13:21;;;;;;;103.35;4.47;;;11.80;80.90;;;;;;5077081;28;20012;-76
2021/10/08 01:15:47;;;;;;;55.80;3.47;;;11.80;80.80;;;;;;5084224;28;20020;-75
2021/10/08 01:18:13;;;;;;;33.75;3.53;;;11.80;80.80;;;;;;5083789;28;20410;-75
2021/10/08 01:20:40;;;;;;;111.18;4.72;;;11.80;80.70;;;;;;5089613;28;20046;-75
2021/10/08 01:23:11;;;;;;;115.75;4.75;;;11.80;80.90;;;;;;5090615;28;20031;-75
2021/10/08 01:25:44;;;;;;;111.00;4.37;;;11.70;81.00;;;;;;5084551;28;20032;-76
2021/10/08 01:28:13;;;;;;;308.38;9.45;;;11.70;81.10;;;;;;5079193;28;20425;-76
2021/10/08 01:30:41;;;;;;;157.73;6.18;;;11.80;81.20;;;;;;5082590;28;20063;-76
2021/10/08 01:33:08;;;;;;;127.35;5.70;;;11.70;81.30;;;;;;5085840;28;20116;-75
2021/10/08 01:35:39;;;;;;;65.20;4.30;;;11.70;81.30;;;;;;5089297;28;20028;-76
2021/10/08 01:38:05;;;;;;;227.82;7.43;;;11.70;81.40;;;;;;5091456;28;20026;-75
2021/10/08 01:40:32;;;;;;;215.15;5.95;;;11.70;81.50;;;;;;5081790;28;20395;-75
2021/10/08 01:43:09;;;;;;;111.65;4.38;;;11.70;81.60;;;;;;5087388;28;20017;-76
2021/10/08 01:45:35;;;;;;;142.45;6.00;;;11.70;81.70;;;;;;5081709;28;20039;-75
2021/10/08 01:48:01;;;;;;;244.10;8.10;;;11.70;81.80;;;;;;5091948;28;20059;-75
2021/10/08 01:50:30;;;;;;;267.58;8.98;;;11.60;81.80;;;;;;5086182;28;20449;-75
2021/10/08 01:52:58;;;;;;;91.35;5.10;;;11.60;81.90;;;;;;5089790;28;20395;-76
2021/10/08 01:55:24;;;;;;;238.32;8.48;;;11.60;82.00;;;;;;5086231;28;20028;-75
2021/10/08 01:58:00;;;;;;;112.95;5.00;;;11.60;82.10;;;;;;5090014;28;20103;-75
2021/10/08 02:00:29;;;;;;;150.77;5.55;;;11.60;82.20;;;;;;5088349;28;20028;-74
2021/10/08 02:03:09;;;;;;;256.42;7.00;;;11.60;82.20;;;;;;5083113;28;20055;-74
2021/10/08 02:05:34;;;;;;;158.32;6.25;;;11.60;82.20;;;;;;5080769;28;20444;-74
2021/10/08 02:08:01;;;;;;;281.40;8.95;;;11.60;82.40;;;;;;5094123;28;20024;-74
2021/10/08 02:10:31;;;;;;;184.82;5.55;;;11.60;82.40;;;;;;5082917;28;20027;-74
2021/10/08 02:12:57;;;;;;;171.38;6.38;;;11.60;82.40;;;;;;5085372;28;20024;-74
2021/10/08 02:15:23;;;;;;;105.72;5.57;;;11.60;82.50;;;;;;5082524;28;20031;-76
2021/10/08 02:17:50;;;;;;;255.23;8.70;;;11.60;82.60;;;;;;5085129;28;20033;-76
2021/10/08 02:20:22;;;;;;;59.45;3.50;;;11.60;82.70;;;;;;5090054;28;20063;-75
2021/10/08 02:22:49;;;;;;;26.02;3.33;;;11.60;83.00;;;;;;5081818;28;20115;-76
2021/10/08 02:25:17;;;;;;;178.55;5.95;;;11.60;83.10;;;;;;5080084;28;20041;-76
2021/10/08 02:27:44;;;;;;;254.02;8.10;;;11.60;83.10;;;;;;5090027;28;20071;-76
2021/10/08 02:30:12;;;;;;;164.80;6.25;;;11.60;83.30;;;;;;5091137;28;20467;-77
2021/10/08 02:32:40;;;;;;;206.35;6.43;;;11.60;83.30;;;;;;5091229;28;20020;-76
2021/10/08 02:35:07;;;;;;;159.05;7.78;;;11.60;83.30;;;;;;5091558;28;20028;-76
2021/10/08 02:37:32;;;;;;;270.45;7.57;;;11.60;83.30;;;;;;5081070;28;20483;-77
2021/10/08 02:39:58;;;;;;;205.10;7.13;;;11.60;83.40;;;;;;5077146;28;20088;-77
2021/10/08 02:42:24;;;;;;;279.80;7.93;;;11.60;83.50;;;;;;5092894;28;20493;-76
2021/10/08 02:44:50;;;;;;;281.33;8.63;;;11.60;83.70;;;;;;5079376;28;20027;-76
2021/10/08 02:47:16;;;;;;;213.38;6.60;;;11.60;83.90;;;;;;5079726;28;20085;-77
2021/10/08 02:49:41;;;;;;;181.50;8.63;;;11.60;84.00;;;;;;5092998;28;20016;-76
2021/10/08 02:52:09;;;;;;;103.15;4.60;;;11.70;84.00;;;;;;5088830;28;20463;-76
2021/10/08 02:54:34;;;;;;;129.60;6.53;;;11.60;84.00;;;;;;5081810;28;20024;-77
2021/10/08 02:57:00;;;;;;;199.35;9.05;;;11.60;84.10;;;;;;5087581;28;20024;-77
2021/10/08 02:59:28;;;;;;;262.52;8.23;;;11.60;84.20;;;;;;5093829;28;20024;-76
2021/10/08 03:01:54;;;;;;;100.88;4.63;;;11.60;84.30;;;;;;5091554;28;20081;-76
2021/10/08 03:04:19;;;;;;;80.25;5.10;;;11.60;84.30;;;;;;5108399;27;20387;-76
2021/10/08 03:06:45;;;;;;;35.97;3.40;;;11.60;85.00;;;;;;5081353;28;20056;-76
2021/10/08 03:09:12;;;;;;;69.70;4.40;;;11.60;84.30;;;;;;5076497;28;20039;-76
2021/10/08 03:11:40;;;;;;;63.60;4.03;;;11.60;84.20;;;;;;5084623;28;20360;-76
2021/10/08 03:14:05;;;;;;;73.68;4.20;;;11.60;84.00;;;;;;5082718;28;20020;-76
2021/10/08 03:16:32;;;;;;;42.65;4.05;;;11.60;83.90;;;;;;5088147;28;20135;-76
2021/10/08 03:18:58;;;;;;;57.17;3.40;;;11.60;83.70;;;;;;5089696;28;20035;-76
2021/10/08 03:21:24;;;;;;;27.15;3.60;;;11.60;83.60;;;;;;5087388;28;20115;-76
2021/10/08 03:23:50;;;;;;;48.92;3.65;;;11.60;83.40;;;;;;5073538;28;20017;-76
2021/10/08 03:26:17;;;;;;;64.40;3.75;;;11.60;83.20;;;;;;5086334;28;20032;-77
2021/10/08 03:28:45;;;;;;;70.70;3.90;;;11.50;83.60;;;;;;5081892;28;20031;-77
2021/10/08 03:31:13;;;;;;;30.10;2.97;;;11.60;82.90;;;;;;5088192;28;20027;-76
2021/10/08 03:33:38;;;;;;;46.85;3.08;;;11.50;82.90;;;;;;5084470;28;20028;-76
2021/10/08 03:36:05;;;;;;;8.13;3.25;;;11.50;82.70;;;;;;5089049;28;20035;-76
2021/10/08 03:38:32;;;;;;;14.30;2.85;;;11.50;82.60;;;;;;5092555;28;20463;-76
2021/10/08 03:43:30;;;;;;;20.02;2.75;;;11.40;82.30;;;;;;5083426;28;20395;-77
2021/10/08 03:46:00;;;;;;;23.63;4.30;;;11.40;82.40;;;;;;5084084;28;20035;-76
2021/10/08 03:51:12;;;;;;;18.45;3.13;;;11.40;82.40;;;;;;5090395;28;20564;-76
2021/10/08 03:53:37;;;;;;;24.60;3.35;;;11.40;82.40;;;;;;5083958;28;20028;-76
2021/10/08 03:56:03;;;;;;;57.95;3.53;;;11.40;82.40;;;;;;5083940;28;20051;-76
2021/10/08 03:58:29;;;;;;;42.90;3.53;;;11.30;82.40;;;;;;5091818;28;20451;-77
2021/10/08 04:00:55;;;;;;;16.33;3.20;;;11.40;82.50;;;;;;5081938;28;20025;-76
2021/10/08 04:03:22;;;;;;;43.25;3.55;;;11.30;82.40;;;;;;5087634;28;20051;-76
2021/10/08 04:05:48;;;;;;;53.00;3.97;;;11.40;82.50;;;;;;5091359;28;20071;-77
2021/10/08 04:08:14;;;;;;;61.53;3.95;;;11.30;82.40;;;;;;5090009;28;20024;-77
2021/10/08 04:10:47;;;;;;;97.65;4.78;;;11.30;82.40;;;;;;5084492;28;20029;-76
2021/10/08 04:13:13;;;;;;;111.35;4.85;;;11.30;82.40;;;;;;5088673;28;20028;-76
2021/10/08 04:15:40;;;;;;;73.60;3.88;;;11.30;82.40;;;;;;5079103;28;20062;-76
2021/10/08 04:18:06;;;;;;;39.78;3.85;;;11.20;82.30;;;;;;5088933;28;20436;-76
2021/10/08 04:20:32;;;;;;;89.18;3.90;;;11.20;82.20;;;;;;5087856;28;20503;-76
2021/10/08 04:22:58;;;;;;;42.00;3.92;;;11.30;82.10;;;;;;5080659;28;20038;-76
2021/10/08 04:25:24;;;;;;;54.40;4.80;;;11.20;82.00;;;;;;5079249;28;20028;-76
2021/10/08 04:27:49;;;;;;;39.80;3.60;;;11.20;81.90;;;;;;5093386;28;20076;-76
2021/10/08 04:30:17;;;;;;;27.85;3.35;;;11.20;81.90;;;;;;5084476;28;20032;-76
2021/10/08 04:32:44;;;;;;;47.75;3.78;;;11.10;81.80;;;;;;5075556;28;20081;-76
2021/10/08 04:35:11;;;;;;;20.85;3.10;;;11.20;81.80;;;;;;5086536;28;20070;-76
2021/10/08 04:37:37;;;;;;;32.00;3.55;;;11.10;81.70;;;;;;5091671;28;20020;-76
2021/10/08 04:40:05;;;;;;;47.65;3.55;;;11.10;81.60;;;;;;5077476;28;20067;-76
2021/10/08 04:42:31;;;;;;;16.40;3.22;;;11.10;81.50;;;;;;5090718;28;20020;-76
2021/10/08 04:44:58;;;;;;;25.48;3.88;;;11.10;81.40;;;;;;5075932;28;20133;-76
2021/10/08 04:47:23;;;;;;;13.43;3.72;;;11.10;81.30;;;;;;5090885;28;20128;-76
2021/10/08 04:49:50;;;;;;;12.38;3.90;;;11.10;81.30;;;;;;5084674;28;20054;-76
2021/10/08 04:52:16;;;;;;;10.80;3.20;;;11.00;81.20;;;;;;5076886;28;20380;-76
2021/10/08 04:54:45;;;;;;;2.97;2.60;;;11.00;81.20;;;;;;5089837;28;20020;-76
2021/10/08 04:57:10;;;;;;;5.03;3.33;;;11.00;81.10;;;;;;5072775;28;20082;-77
2021/10/08 04:59:37;;;;;;;3.30;2.67;;;10.90;81.00;;;;;;5081519;28;20027;-76
2021/10/08 05:02:03;;;;;;;4.25;3.20;;;11.00;81.00;;;;;;5088923;28;20571;-76
2021/10/08 05:04:29;;;;;;;3.90;2.97;;;11.00;80.90;;;;;;5090219;28;20031;-76
2021/10/08 05:06:55;;;;;;;6.15;3.28;;;10.90;80.70;;;;;;5083855;28;20036;-76
2021/10/08 05:09:22;;;;;;;5.85;2.58;;;10.90;80.70;;;;;;5071405;28;20016;-76
2021/10/08 05:11:48;;;;;;;3.88;2.78;;;10.90;80.60;;;;;;5073628;28;20036;-79
2021/10/08 05:14:14;;;;;;;4.10;3.15;;;10.90;80.60;;;;;;5076609;28;20119;-69
2021/10/08 05:16:43;;;;;;;2.83;2.38;;;10.90;80.70;;;;;;5090953;28;20024;-75
2021/10/08 05:19:09;;;;;;;3.85;2.83;;;10.80;80.80;;;;;;5086955;28;20114;-74
2021/10/08 05:21:38;;;;;;;7.93;3.03;;;10.80;80.80;;;;;;5080894;28;20024;-71
2021/10/08 05:24:04;;;;;;;4.10;3.00;;;10.80;80.80;;;;;;5088178;28;20020;-77
2021/10/08 05:26:30;;;;;;;3.95;2.83;;;10.80;80.90;;;;;;5085949;28;20411;-77
2021/10/08 05:28:59;;;;;;;4.13;2.90;;;10.80;81.00;;;;;;5087399;28;20024;-78
2021/10/08 05:31:27;;;;;;;3.05;2.40;;;10.70;80.90;;;;;;5085414;28;20032;-77
2021/10/08 05:33:54;;;;;;;3.50;2.67;;;10.70;80.80;;;;;;5087419;28;20220;-76
2021/10/08 05:36:22;;;;;;;4.82;2.50;;;10.70;80.90;;;;;;5084829;28;20422;-76
2021/10/08 05:38:47;;;;;;;3.15;2.63;;;10.70;80.80;;;;;;5083135;28;20024;-76
2021/10/08 05:41:14;;;;;;;4.28;3.10;;;10.70;80.80;;;;;;5085351;28;20047;-76
2021/10/08 05:43:41;;;;;;;3.08;2.50;;;10.70;80.80;;;;;;5091305;28;20158;-76
2021/10/08 05:46:07;;;;;;;4.18;3.20;;;10.70;80.90;;;;;;5075567;28;20131;-78
2021/10/08 05:48:33;;;;;;;4.70;2.88;;;10.70;80.80;;;;;;5080702;28;20494;-76
2021/10/08 05:50:59;;;;;;;3.65;2.60;;;10.60;80.80;;;;;;5084221;28;20040;-78
2021/10/08 05:53:26;;;;;;;4.07;2.60;;;10.60;80.90;;;;;;5080898;28;20019;-77
2021/10/08 05:55:51;;;;;;;3.55;2.67;;;10.60;81.00;;;;;;5081134;28;20075;-75
2021/10/08 05:58:17;;;;;;;4.10;2.83;;;10.70;81.10;;;;;;5085684;28;20023;-80
2021/10/08 06:00:43;;;;;;;7.50;2.95;;;10.60;81.10;;;;;;5091429;28;20035;-80
2021/10/08 06:03:08;;;;;;;3.20;2.60;;;10.60;81.00;;;;;;5081172;28;20025;-75
2021/10/08 06:05:38;;;;;;;3.97;3.00;;;10.60;80.90;;;;;;5089875;28;20029;-75
2021/10/08 06:08:07;;;;;;;3.90;2.78;;;10.60;80.80;;;;;;5085488;28;20021;-75
2021/10/08 06:10:36;;;;;;;3.95;3.13;;;10.50;80.80;;;;;;5085091;28;20025;-76
2021/10/08 06:13:02;;;;;;;4.55;3.20;;;10.50;80.80;;;;;;5085924;28;20089;-75
2021/10/08 06:15:30;;;;;;;4.35;3.00;;;10.50;81.60;;;;;;5083102;28;20017;-75
2021/10/08 06:17:56;;;;;;;4.03;2.60;;;10.50;81.00;;;;;;5091806;28;20032;-76
2021/10/08 06:20:21;;;;;;;4.13;2.95;;;10.50;81.20;;;;;;5092530;28;20463;-77
2021/10/08 06:22:49;;;;;;;5.70;4.03;;;10.50;81.20;;;;;;5088273;28;20020;-70
2021/10/08 06:25:19;;;;;;;4.68;3.22;;;10.50;81.20;;;;;;5083528;28;20388;-74
2021/10/08 06:27:46;;;;;;;5.70;3.35;;;10.50;81.30;;;;;;5080512;28;20021;-74
2021/10/08 06:30:13;;;;;;;5.68;3.47;;;10.50;81.40;;;;;;5089568;28;20023;-74
2021/10/08 06:32:40;;;;;;;6.65;3.28;;;10.50;81.50;;;;;;5085749;28;20020;-86
2021/10/08 06:35:09;;;;;;;3.53;2.47;;;10.50;81.70;;;;;;5086643;28;20028;-73
2021/10/08 06:37:35;;;;;;;12.18;3.53;;;10.50;81.70;;;;;;5079265;28;20024;-73
2021/10/08 06:40:03;;;;;;;5.03;2.85;;;10.50;81.80;;;;;;5087020;28;20052;-73
2021/10/08 06:42:30;;;;;;;3.90;2.78;;;10.50;81.80;;;;;;5088091;28;20017;-73
2021/10/08 06:45:05;;;;;;;4.80;3.20;;;10.50;81.90;;;;;;5082931;28;20044;-73
2021/10/08 06:47:32;;;;;;;5.15;3.40;;;10.50;82.00;;;;;;5085701;28;20036;-73
2021/10/08 06:49:58;;;;;;;9.40;3.72;;;10.50;82.10;;;;;;5084929;28;20024;-72
2021/10/08 06:52:26;;;;;;;6.10;4.32;;;10.50;82.40;;;;;;5086868;28;20025;-72
2021/10/08 06:54:52;;;;;;;6.18;4.18;;;10.50;82.60;;;;;;5077859;28;20024;-72
2021/10/08 06:57:18;;;;;;;6.63;4.50;;;10.50;82.80;;;;;;5085561;28;20016;-72
2021/10/08 06:59:44;;;;;;;8.15;3.85;;;10.50;83.00;;;;;;5088708;28;20052;-72
2021/10/08 07:02:09;;;;;;;6.95;4.50;;;10.60;83.20;;;;;;5083152;28;20027;-72
2021/10/08 07:04:36;;;;;;;9.27;5.05;;;10.60;83.50;;;;;;5087985;28;20024;-72
2021/10/08 07:07:03;;;;;;;10.32;5.25;;;10.60;83.80;;;;;;5075015;28;20502;-73
2021/10/08 07:09:53;;;;;;;18.67;9.27;;;10.60;84.20;;;;;;5077402;28;20021;-72
2021/10/08 07:12:19;;;;;;;20.63;10.65;;;10.60;84.80;;;;;;5075657;28;20159;-72
2021/10/08 07:14:44;;;;;;;23.60;12.48;;;10.60;85.20;;;;;;5076055;28;20506;-72
2021/10/08 07:17:11;;;;;;;30.33;13.57;;;10.70;85.70;;;;;;5076661;28;20062;-73
2021/10/08 07:19:36;;;;;;;29.05;12.95;;;10.70;86.10;;;;;;5073089;28;20027;-74
2021/10/08 07:22:02;;;;;;;28.15;12.52;;;10.70;86.50;;;;;;5079395;28;20379;-72
2021/10/08 07:24:28;;;;;;;26.73;12.55;;;10.70;86.80;;;;;;5074963;28;20029;-67
2021/10/08 07:26:54;;;;;;;23.55;12.52;;;10.80;87.20;;;;;;5079983;28;20042;-76
2021/10/08 07:29:22;;;;;;;31.40;14.95;;;10.80;87.50;;;;;;5082158;28;20551;-73
2021/10/08 07:31:48;;;;;;;34.00;16.52;;;10.90;87.90;;;;;;5085155;28;20036;-73
2021/10/08 07:34:13;;;;;;;34.88;17.55;;;10.90;88.30;;;;;;5078412;28;20032;-73
2021/10/08 07:36:39;;;;;;;38.90;18.25;;;10.90;88.70;;;;;;5089650;28;20080;-73
2021/10/08 07:39:05;;;;;;;28.73;15.50;;;11.00;89.00;;;;;;5076501;28;20115;-73
2021/10/08 07:41:31;;;;;;;36.15;16.83;;;11.00;89.30;;;;;;5090744;28;20077;-73
2021/10/08 07:43:56;;;;;;;32.58;17.42;;;11.10;89.60;;;;;;5085534;28;20562;-73
2021/10/08 07:46:24;;;;;;;30.60;15.85;;;11.10;89.90;;;;;;5089840;28;20040;-73
2021/10/08 07:48:50;;;;;;;32.60;16.27;;;11.20;90.00;;;;;;5089363;28;20028;-73
2021/10/08 07:51:16;;;;;;;32.03;16.50;;;11.20;90.00;;;;;;5085555;28;20402;-73
2021/10/08 07:53:41;;;;;;;33.80;15.88;;;11.20;90.10;;;;;;5085361;28;20030;-73
2021/10/08 07:56:07;;;;;;;31.95;18.10;;;11.30;90.20;;;;;;5080839;28;20028;-74
2021/10/08 07:58:33;;;;;;;29.85;17.20;;;11.30;90.30;;;;;;5089613;28;20032;-73
2021/10/08 08:01:02;;;;;;;33.95;16.52;;;11.30;90.30;;;;;;5073260;28;20031;-73
2021/10/08 08:03:28;;;;;;;33.40;17.40;;;11.40;90.40;;;;;;5077847;28;20523;-73
2021/10/08 08:05:54;;;;;;;30.23;17.90;;;11.40;90.60;;;;;;5089658;28;20040;-73
2021/10/08 08:08:20;;;;;;;35.22;17.85;;;11.50;90.80;;;;;;5092390;28;20032;-73
2021/10/08 08:10:46;;;;;;;35.47;17.27;;;11.60;90.90;;;;;;5076545;28;20032;-72
2021/10/08 08:13:12;;;;;;;38.55;18.90;;;11.50;90.90;;;;;;5089201;28;20042;-72
2021/10/08 08:15:38;;;;;;;34.75;16.55;;;11.60;91.10;;;;;;5089716;28;20034;-73
2021/10/08 08:18:04;;;;;;;39.72;18.23;;;11.70;91.10;;;;;;5086381;28;20028;-73
2021/10/08 08:20:30;;;;;;;37.55;17.92;;;11.70;91.20;;;;;;5084874;28;20030;-73
2021/10/08 08:22:55;;;;;;;36.50;18.50;;;11.80;91.30;;;;;;5085810;28;20020;-72
2021/10/08 08:25:21;;;;;;;36.30;17.02;;;11.80;91.40;;;;;;5089412;28;20390;-73
2021/10/08 08:27:47;;;;;;;34.70;17.45;;;11.80;91.50;;;;;;5085033;28;20033;-72
2021/10/08 08:30:13;;;;;;;35.33;18.00;;;11.90;91.50;;;;;;5091918;28;20027;-72
2021/10/08 08:32:39;;;;;;;30.05;15.82;;;11.90;91.60;;;;;;5092836;28;20032;-72
2021/10/08 08:35:05;;;;;;;36.40;17.90;;;12.00;91.50;;;;;;5085961;28;20020;-72
2021/10/08 08:37:31;;;;;;;31.75;18.25;;;12.00;91.40;;;;;;5080562;28;20032;-72
2021/10/08 08:39:59;;;;;;;34.25;19.42;;;12.00;91.50;;;;;;5087904;28;20054;-72
2021/10/08 08:42:25;;;;;;;32.42;18.00;;;12.10;91.60;;;;;;5087439;28;20093;-72
2021/10/08 08:44:51;;;;;;;32.13;16.83;;;12.10;91.70;;;;;;5085391;28;20021;-72
2021/10/08 08:47:18;;;;;;;32.80;17.55;;;12.20;91.70;;;;;;5084228;28;20101;-72
2021/10/08 08:49:44;;;;;;;37.03;18.98;;;12.20;91.60;;;;;;5078885;28;20056;-72
2021/10/08 08:52:10;;;;;;;36.63;19.15;;;12.30;91.70;;;;;;5089704;28;20105;-72
2021/10/08 08:54:36;;;;;;;35.63;18.10;;;12.30;92.00;;;;;;5079100;28;20054;-72
2021/10/08 08:57:12;;;;;;;36.92;18.52;;;12.40;91.80;;;;;;5090309;28;20552;-73
2021/10/08 08:59:58;;;;;;;31.70;17.77;;;12.40;91.80;;;;;;5091045;28;20028;-72
2021/10/08 09:02:25;;;;;;;32.67;18.38;;;12.40;91.80;;;;;;5079820;28;20024;-72
2021/10/08 09:04:51;;;;;;;40.33;18.40;;;12.50;91.80;;;;;;5092061;28;20370;-74
2021/10/08 09:07:17;;;;;;;39.13;18.90;;;12.60;91.90;;;;;;5089385;28;20047;-74
2021/10/08 09:09:44;;;;;;;37.28;18.10;;;12.60;91.80;;;;;;5091645;28;20032;-73
2021/10/08 09:12:11;;;;;;;42.63;21.23;;;12.70;91.90;;;;;;5083159;28;20043;-72
2021/10/08 09:14:36;;;;;;;42.13;21.95;;;12.70;92.10;;;;;;5079292;28;20062;-73
2021/10/08 09:17:06;;;;;;;41.95;22.52;;;12.80;92.20;;;;;;5082747;28;20059;-73
2021/10/08 09:19:51;;;;;;;39.60;20.42;;;12.90;92.40;;;;;;5078693;28;20020;-73
2021/10/08 09:22:22;;;;;;;40.13;21.58;;;12.90;92.40;;;;;;5075003;28;20029;-73
2021/10/08 09:24:48;;;;;;;41.03;20.83;;;13.00;92.40;;;;;;5078471;28;20475;-73
2021/10/08 09:27:17;;;;;;;43.15;20.80;;;13.10;92.50;;;;;;5080932;28;20415;-73
2021/10/08 09:29:47;;;;;;;41.10;20.67;;;13.10;92.60;;;;;;5083601;28;20105;-74
2021/10/08 09:32:13;;;;;;;38.72;20.75;;;13.20;92.70;;;;;;5085540;28;20032;-76
2021/10/08 09:34:38;;;;;;;42.30;20.73;;;13.20;92.60;;;;;;5071377;28;20082;-74
2021/10/08 09:37:06;;;;;;;39.25;22.02;;;13.30;92.70;;;;;;5079478;28;20113;-74
2021/10/08 09:39:33;;;;;;;42.40;21.70;;;13.30;92.70;;;;;;5076981;28;20149;-74
2021/10/08 09:42:05;;;;;;;37.80;20.88;;;13.40;92.80;;;;;;5088624;28;20075;-73
2021/10/08 09:44:35;;;;;;;39.65;20.83;;;13.50;92.90;;;;;;5095807;28;20031;-73
2021/10/08 09:47:18;;;;;;;36.28;20.33;;;13.60;93.00;;;;;;5081593;28;20550;-74
2021/10/08 09:49:46;;;;;;;37.70;20.85;;;13.60;93.00;;;;;;5094498;28;20038;-73
2021/10/08 09:52:24;;;;;;;37.25;19.80;;;13.70;92.90;;;;;;5082683;28;20112;-73
2021/10/08 09:54:52;;;;;;;36.58;18.98;;;13.70;93.00;;;;;;5091691;28;20028;-74
2021/10/08 09:57:21;;;;;;;32.55;18.23;;;13.80;92.90;;;;;;5092697;28;20034;-73
2021/10/08 09:59:48;;;;;;;35.72;18.75;;;13.90;93.00;;;;;;5088005;28;20028;-73
2021/10/08 10:02:13;;;;;;;34.90;19.05;;;13.90;93.00;;;;;;5089972;28;20036;-74
2021/10/08 10:04:47;;;;;;;35.38;18.80;;;13.90;93.10;;;;;;5087963;28;20023;-75
2021/10/08 10:07:15;;;;;;;31.83;16.45;;;14.10;93.10;;;;;;5077492;28;20045;-74
2021/10/08 10:09:41;;;;;;;33.92;17.63;;;14.10;93.10;;;;;;5084149;28;20035;-72
2021/10/08 10:12:07;;;;;;;35.20;17.88;;;14.20;93.20;;;;;;5090091;28;20036;-73
2021/10/08 10:14:34;;;;;;;28.95;15.73;;;14.20;93.20;;;;;;5074980;28;20456;-73
2021/10/08 10:17:02;;;;;;;28.88;16.30;;;14.30;93.20;;;;;;5087429;28;20051;-73
2021/10/08 10:19:30;;;;;;;30.17;16.58;;;14.40;93.10;;;;;;5078591;28;20051;-72
2021/10/08 10:21:56;;;;;;;32.95;17.15;;;14.40;93.20;;;;;;5078430;28;20077;-73
2021/10/08 10:24:24;;;;;;;29.60;16.30;;;14.50;93.30;;;;;;5085938;28;20495;-73
2021/10/08 10:26:50;;;;;;;34.78;17.90;;;14.50;93.30;;;;;;5075800;28;20040;-74
2021/10/08 10:29:17;;;;;;;33.42;16.38;;;14.60;93.30;;;;;;5094006;28;20046;-73
2021/10/08 10:31:44;;;;;;;28.52;14.63;;;14.70;93.40;;;;;;5093074;28;20570;-73
2021/10/08 10:34:10;;;;;;;27.40;15.68;;;14.70;93.30;;;;;;5092403;28;20028;-73
2021/10/08 10:36:41;;;;;;;29.00;13.65;;;14.80;93.30;;;;;;5093893;28;20394;-73
2021/10/08 10:39:19;;;;;;;24.58;14.52;;;14.80;93.10;;;;;;5080355;28;20032;-73
2021/10/08 10:42:13;;;;;;;24.00;14.07;;;14.90;93.00;;;;;;5092693;28;20040;-72
2021/10/08 10:45:25;;;;;;;23.15;13.70;;;15.00;93.00;;;;;;5091326;28;20028;-73
2021/10/08 10:48:10;;;;;;;26.10;13.55;;;15.00;92.80;;;;;;5091705;28;20461;-73
2021/10/08 10:50:48;;;;;;;21.58;13.20;;;15.00;92.80;;;;;;5093670;28;20032;-77
2021/10/08 10:53:14;;;;;;;21.40;12.07;;;15.10;92.80;;;;;;5076824;28;20114;-72
2021/10/08 10:55:39;;;;;;;19.05;10.70;;;15.10;92.80;;;;;;5083566;28;20119;-74
2021/10/08 10:58:08;;;;;;;20.65;11.57;;;15.20;92.60;;;;;;5078229;28;20028;-74
2021/10/08 11:00:45;;;;;;;21.88;12.13;;;15.20;92.60;;;;;;5076483;28;20086;-79
2021/10/08 11:03:20;;;;;;;21.45;12.07;;;15.30;92.80;;;;;;5088340;28;20039;-74
2021/10/08 11:06:07;;;;;;;27.25;12.20;;;15.30;92.80;;;;;;5081040;28;20039;-73
2021/10/08 11:08:33;;;;;;;19.75;10.90;;;15.40;92.70;;;;;;5085531;28;20066;-72
2021/10/08 11:10:59;;;;;;;17.25;9.93;;;15.40;92.80;;;;;;5092699;28;20119;-73
2021/10/08 11:13:33;;;;;;;21.65;10.07;;;15.50;92.80;;;;;;5091902;28;20609;-75
2021/10/08 11:16:02;;;;;;;17.45;9.68;;;15.60;92.80;;;;;;5094535;28;20043;-74
2021/10/08 11:18:35;;;;;;;15.45;10.20;;;15.60;92.70;;;;;;5083374;28;20032;-77
2021/10/08 11:21:01;;;;;;;17.43;10.33;;;15.70;92.60;;;;;;5090663;28;20024;-75
2021/10/08 11:23:33;;;;;;;18.52;9.43;;;15.70;92.50;;;;;;5090977;28;20036;-76
2021/10/08 11:26:16;;;;;;;15.10;8.18;;;15.80;92.50;;;;;;5088609;28;20403;-75
2021/10/08 11:28:45;;;;;;;14.48;8.18;;;15.80;92.40;;;;;;5081510;28;20031;-75
2021/10/08 11:31:18;;;;;;;12.73;8.00;;;15.90;92.40;;;;;;5088634;28;20081;-75
2021/10/08 11:33:50;;;;;;;11.65;6.80;;;15.90;92.10;;;;;;5091740;28;20028;-76
2021/10/08 11:36:18;;;;;;;10.30;6.57;;;16.00;91.80;;;;;;5077388;28;20081;-76
2021/10/08 11:38:44;;;;;;;11.77;6.93;;;16.00;91.70;;;;;;5088038;28;20115;-76
2021/10/08 11:41:25;;;;;;;11.90;6.13;;;16.10;91.70;;;;;;5075960;28;20048;-75
2021/10/08 11:44:18;;;;;;;8.13;5.22;;;16.10;91.40;;;;;;5084694;28;20036;-75
2021/10/08 11:47:29;;;;;;;15.98;6.55;;;16.20;91.20;;;;;;5080728;28;20032;-75
2021/10/08 11:50:10;;;;;;;12.32;6.75;;;16.30;91.20;;;;;;5011808;28;20045;-75
2021/10/08 11:52:38;;;;;;;10.18;5.70;;;16.20;91.00;;;;;;5010602;28;20663;-76
2021/10/08 11:55:14;;;;;;;11.30;6.32;;;16.30;91.10;;;;;;5056322;28;20075;-75
2021/10/08 11:57:58;;;;;;;10.20;5.45;;;16.30;90.90;;;;;;5086477;28;20463;-75
2021/10/08 12:00:49;;;;;;;9.45;5.50;;;16.40;90.60;;;;;;5080343;28;20070;-76
2021/10/08 12:03:19;;;;;;;6.28;3.45;;;16.50;90.50;;;;;;5089886;28;20032;-78
2021/10/08 12:05:51;;;;;;;6.38;4.10;;;16.50;90.10;;;;;;5073284;28;20119;-76
2021/10/08 12:08:37;;;;;;;7.05;4.47;;;16.60;89.60;;;;;;5087347;28;20039;-77
2021/10/08 12:11:10;;;;;;;10.30;4.18;;;16.60;89.10;;;;;;5083786;28;20119;-78
2021/10/08 12:13:51;;;;;;;5.25;3.20;;;16.60;88.70;;;;;;5077419;28;20033;-79
2021/10/08 12:16:19;;;;;;;6.80;3.15;;;16.70;87.90;;;;;;5073409;28;20044;-76
2021/10/08 12:18:51;;;;;;;8.00;4.32;;;16.70;87.40;;;;;;5078259;28;20033;-77
2021/10/08 12:21:26;;;;;;;6.07;3.58;;;16.80;87.30;;;;;;5072908;28;20504;-77
2021/10/08 12:24:19;;;;;;;5.10;3.20;;;16.80;86.80;;;;;;5086821;28;20483;-77
2021/10/08 12:27:06;;;;;;;5.78;2.80;;;16.90;86.00;;;;;;5075840;28;20051;-77
2021/10/08 12:29:41;;;;;;;5.25;3.40;;;16.90;85.40;;;;;;5073992;28;20033;-71
2021/10/08 12:32:16;;;;;;;11.68;3.00;;;17.00;85.00;;;;;;5086588;28;20040;-79
2021/10/08 12:34:47;;;;;;;6.53;2.70;;;17.00;84.70;;;;;;5072839;28;20464;-73
2021/10/08 12:37:22;;;;;;;5.15;3.17;;;17.10;84.10;;;;;;5073087;28;20380;-73
2021/10/08 12:40:03;;;;;;;4.55;3.00;;;17.10;83.70;;;;;;5078558;28;20043;-72
2021/10/08 12:42:34;;;;;;;7.22;4.00;;;17.20;83.30;;;;;;5090871;28;20036;-74
2021/10/08 12:45:00;;;;;;;20.70;5.22;;;17.20;83.00;;;;;;5084779;28;20442;-73